Time;durP1;ratioP1;P1;durP2;ratioP2;P2;SDS_P1;SDS_P2;PMS_P1;PMS_P2;Temp;Humidity;BMP_temperature;BMP_pressure;BME280_temperature;BME280_humidity;BME280_pressure;Samples;Min_cycle;Max_cycle;Signal;HPM_P1;HPM_P2
2023/02/24 00:02:00;;;;;;;26.83;18.33;;;12.90;99.90;;;;;;5082670;28;20447;-71
2023/02/24 00:04:31;;;;;;;25.00;18.60;;;12.90;99.90;;;;;;5071025;28;20453;-69
2023/02/24 00:06:58;;;;;;;27.53;19.67;;;12.90;99.90;;;;;;5086160;28;21424;-69
2023/02/24 00:09:26;;;;;;;27.43;18.43;;;12.90;99.90;;;;;;5089427;28;21248;-69
2023/02/24 00:11:56;;;;;;;25.00;18.93;;;12.90;99.90;;;;;;5084547;28;20493;-69
2023/02/24 00:14:25;;;;;;;25.97;19.40;;;12.90;99.90;;;;;;5094524;28;20444;-69
2023/02/24 00:16:52;;;;;;;27.50;19.17;;;12.90;99.90;;;;;;5089672;28;20549;-68
2023/02/24 00:19:22;;;;;;;26.47;18.93;;;12.80;99.90;;;;;;5089282;28;21302;-69
2023/02/24 00:21:48;;;;;;;29.87;19.53;;;12.80;99.90;;;;;;5091380;28;20446;-69
2023/02/24 00:24:14;;;;;;;30.30;20.20;;;12.80;99.90;;;;;;5088385;28;20984;-69
2023/02/24 00:26:40;;;;;;;27.47;20.37;;;12.80;99.90;;;;;;5093326;28;20661;-69
2023/02/24 00:29:08;;;;;;;30.50;20.57;;;12.80;99.90;;;;;;5091792;28;20781;-69
2023/02/24 00:31:37;;;;;;;30.00;19.30;;;12.80;99.90;;;;;;5090698;28;20228;-70
2023/02/24 00:34:04;;;;;;;27.63;19.63;;;12.80;99.90;;;;;;5093612;28;20439;-70
2023/02/24 00:36:32;;;;;;;27.23;19.70;;;12.70;99.90;;;;;;5088616;28;20553;-69
2023/02/24 00:39:01;;;;;;;29.37;21.03;;;12.70;99.90;;;;;;5091988;28;20605;-70
2023/02/24 00:41:29;;;;;;;32.57;21.70;;;12.70;99.90;;;;;;5086678;28;20444;-70
2023/02/24 00:43:57;;;;;;;29.40;20.10;;;12.70;99.90;;;;;;5088695;28;20444;-70
2023/02/24 00:46:30;;;;;;;35.90;22.27;;;12.70;99.90;;;;;;5086066;28;20730;-70
2023/02/24 00:48:56;;;;;;;32.00;20.73;;;12.70;99.90;;;;;;5090025;27;20608;-69
2023/02/24 00:51:25;;;;;;;31.73;21.27;;;12.70;99.90;;;;;;5088105;28;21007;-69
2023/02/24 00:53:56;;;;;;;35.60;22.50;;;12.70;99.90;;;;;;5087420;27;20173;-69
2023/02/24 00:56:25;;;;;;;34.00;23.17;;;12.60;99.90;;;;;;5091315;27;20447;-69
2023/02/24 00:58:52;;;;;;;35.87;23.10;;;12.60;99.90;;;;;;5093761;28;20558;-70
2023/02/24 01:01:20;;;;;;;38.17;22.87;;;12.60;99.90;;;;;;5087028;28;20446;-70
2023/02/24 01:03:49;;;;;;;36.57;22.30;;;12.50;99.90;;;;;;5093340;28;20439;-69
2023/02/24 01:06:19;;;;;;;42.10;24.07;;;12.50;99.90;;;;;;5092812;27;20534;-70
2023/02/24 01:08:46;;;;;;;41.40;23.77;;;12.50;99.90;;;;;;5090859;28;20431;-71
2023/02/24 01:13:58;;;;;;;40.37;24.00;;;12.50;99.90;;;;;;5093912;27;20508;-70
2023/02/24 01:16:23;;;;;;;43.00;25.20;;;12.50;99.90;;;;;;5072426;28;20459;-70
2023/02/24 01:18:49;;;;;;;37.63;23.53;;;12.50;99.90;;;;;;5090076;28;20468;-70
2023/02/24 01:21:16;;;;;;;42.50;25.70;;;12.50;99.90;;;;;;5091562;28;20193;-70
2023/02/24 01:23:42;;;;;;;40.47;26.13;;;12.50;99.90;;;;;;5090471;28;20181;-70
2023/02/24 01:26:09;;;;;;;42.07;26.53;;;12.50;99.90;;;;;;5088009;27;20456;-69
2023/02/24 01:28:36;;;;;;;43.93;26.23;;;12.50;99.90;;;;;;5093485;27;20432;-70
2023/02/24 01:31:04;;;;;;;40.33;24.13;;;12.50;99.90;;;;;;5090208;27;20439;-70
2023/02/24 01:33:32;;;;;;;47.33;26.40;;;12.40;99.90;;;;;;5094644;27;20999;-70
2023/02/24 01:36:11;;;;;;;46.13;26.70;;;12.40;99.90;;;;;;5089942;28;20452;-69
2023/02/24 01:38:38;;;;;;;48.00;26.77;;;12.40;99.90;;;;;;5091315;27;21732;-69
2023/02/24 01:41:04;;;;;;;46.93;26.00;;;12.40;99.90;;;;;;5089739;28;20439;-69
2023/02/24 01:43:31;;;;;;;44.83;25.33;;;12.40;99.90;;;;;;5075425;28;20937;-70
2023/02/24 01:45:56;;;;;;;49.80;30.30;;;12.40;99.90;;;;;;5091122;27;20558;-70
2023/02/24 01:48:23;;;;;;;47.30;29.67;;;12.40;99.90;;;;;;5091481;28;20442;-70
2023/02/24 01:50:50;;;;;;;45.07;26.90;;;12.40;99.90;;;;;;5073740;28;20194;-70
2023/02/24 01:53:16;;;;;;;46.53;25.20;;;12.40;99.90;;;;;;5078117;28;20937;-70
2023/02/24 01:55:48;;;;;;;42.87;26.60;;;12.40;99.90;;;;;;5089657;28;20439;-69
2023/02/24 01:58:26;;;;;;;41.73;22.80;;;12.40;99.90;;;;;;5073160;28;20235;-70
2023/02/24 02:00:52;;;;;;;48.00;26.50;;;12.40;99.90;;;;;;5087590;28;20823;-70
2023/02/24 02:03:25;;;;;;;43.20;25.00;;;12.40;99.90;;;;;;5088499;27;20538;-70
2023/02/24 02:05:54;;;;;;;51.53;26.83;;;12.40;99.90;;;;;;5091139;28;20205;-70
2023/02/24 02:08:22;;;;;;;51.60;29.10;;;12.40;99.90;;;;;;5090886;28;20795;-69
2023/02/24 02:10:48;;;;;;;46.70;26.27;;;12.40;99.90;;;;;;5090175;28;20450;-71
2023/02/24 02:13:20;;;;;;;50.97;28.13;;;12.40;99.90;;;;;;5092493;28;21036;-70
2023/02/24 02:15:55;;;;;;;46.40;26.57;;;12.40;99.90;;;;;;5092069;27;20444;-70
2023/02/24 02:18:49;;;;;;;46.80;26.20;;;12.40;99.90;;;;;;5089286;28;20437;-69
2023/02/24 02:21:51;;;;;;;47.57;27.53;;;12.30;99.90;;;;;;5088068;28;20452;-69
2023/02/24 02:24:31;;;;;;;50.13;27.33;;;12.30;99.90;;;;;;5090246;28;21063;-70
2023/02/24 02:27:28;;;;;;;46.40;25.33;;;12.30;99.90;;;;;;5091237;27;20459;-69
2023/02/24 02:30:13;;;;;;;52.30;28.33;;;12.30;99.90;;;;;;5092641;27;20449;-69
2023/02/24 02:32:51;;;;;;;47.60;25.50;;;12.30;99.90;;;;;;5077079;28;20849;-69
2023/02/24 02:35:41;;;;;;;49.20;26.50;;;12.30;99.90;;;;;;5094105;28;20435;-69
2023/02/24 02:38:14;;;;;;;50.43;27.73;;;12.30;99.90;;;;;;5052761;28;20448;-70
2023/02/24 02:41:02;;;;;;;48.87;27.60;;;12.30;99.90;;;;;;5094232;27;20471;-70
2023/02/24 02:43:48;;;;;;;53.90;28.63;;;12.30;99.90;;;;;;5094030;28;20435;-71
2023/02/24 02:46:33;;;;;;;59.67;27.67;;;12.30;99.90;;;;;;5088328;28;20450;-70
2023/02/24 02:49:05;;;;;;;55.47;28.00;;;12.30;99.90;;;;;;5091884;27;20474;-71
2023/02/24 02:51:39;;;;;;;47.50;25.13;;;12.30;99.90;;;;;;5095684;27;20428;-70
2023/02/24 02:54:16;;;;;;;53.33;29.60;;;12.20;99.90;;;;;;5091325;27;20527;-70
2023/02/24 02:56:49;;;;;;;50.93;28.00;;;12.30;99.90;;;;;;5070601;28;20455;-70
2023/02/24 02:59:21;;;;;;;52.60;26.97;;;12.20;99.90;;;;;;5086905;28;20463;-70
2023/02/24 03:01:49;;;;;;;52.60;27.00;;;12.30;99.90;;;;;;5089893;28;20958;-70
2023/02/24 03:04:21;;;;;;;55.40;27.77;;;12.20;99.90;;;;;;5087111;28;20470;-69
2023/02/24 03:06:52;;;;;;;51.47;27.60;;;12.20;99.90;;;;;;5070953;28;21137;-69
2023/02/24 03:09:26;;;;;;;59.93;30.53;;;12.20;99.90;;;;;;5070703;28;20790;-70
2023/02/24 03:12:00;;;;;;;47.37;25.30;;;12.20;99.90;;;;;;5091320;27;20438;-70
2023/02/24 03:14:32;;;;;;;45.10;27.53;;;12.20;99.90;;;;;;5090747;28;20528;-70
2023/02/24 03:16:58;;;;;;;53.17;25.20;;;12.20;99.90;;;;;;5089157;27;20454;-70
2023/02/24 03:19:30;;;;;;;50.77;27.83;;;12.20;99.90;;;;;;5092271;27;20992;-70
2023/02/24 03:22:12;;;;;;;46.93;26.20;;;12.20;99.90;;;;;;5087610;28;20565;-70
2023/02/24 03:24:43;;;;;;;49.83;26.90;;;12.20;99.90;;;;;;5087983;27;20443;-70
2023/02/24 03:27:22;;;;;;;48.43;26.37;;;12.20;99.90;;;;;;5090357;28;20582;-70
2023/02/24 03:30:06;;;;;;;49.43;26.60;;;12.20;99.90;;;;;;5087398;27;20451;-69
2023/02/24 03:32:42;;;;;;;48.50;26.67;;;12.20;99.90;;;;;;5087322;27;20431;-70
2023/02/24 03:35:12;;;;;;;52.73;27.77;;;12.20;99.90;;;;;;5083827;28;20490;-70
2023/02/24 03:37:38;;;;;;;55.03;26.10;;;12.10;99.90;;;;;;5088614;28;20542;-69
2023/02/24 03:40:13;;;;;;;50.80;27.77;;;12.20;99.90;;;;;;5090553;28;20546;-69
2023/02/24 03:42:42;;;;;;;49.17;27.50;;;12.10;99.90;;;;;;5090667;28;20903;-69
2023/02/24 03:45:08;;;;;;;49.07;26.00;;;12.10;99.90;;;;;;5089744;28;20435;-69
2023/02/24 03:47:34;;;;;;;48.00;26.77;;;12.10;99.90;;;;;;5089846;28;20462;-69
2023/02/24 03:50:00;;;;;;;46.80;25.40;;;12.10;99.90;;;;;;5090924;28;20492;-69
2023/02/24 03:52:58;;;;;;;49.27;26.90;;;12.10;99.90;;;;;;5089964;28;20996;-69
2023/02/24 03:55:53;;;;;;;50.70;26.17;;;12.10;99.90;;;;;;5045152;28;20198;-70
2023/02/24 03:58:47;;;;;;;44.40;24.10;;;12.10;99.90;;;;;;5092744;28;20456;-69
2023/02/24 04:01:35;;;;;;;50.63;26.50;;;12.10;99.90;;;;;;5092752;28;20788;-69
2023/02/24 04:04:15;;;;;;;47.20;26.10;;;12.10;99.90;;;;;;5086369;28;20436;-68
2023/02/24 04:06:48;;;;;;;44.40;27.13;;;12.10;99.90;;;;;;5089104;28;21144;-68
2023/02/24 04:09:42;;;;;;;50.83;26.10;;;12.10;99.90;;;;;;5091536;28;20446;-69
2023/02/24 04:12:33;;;;;;;54.03;27.23;;;12.10;99.90;;;;;;5087839;28;20493;-69
2023/02/24 04:15:27;;;;;;;47.80;26.57;;;12.00;99.90;;;;;;5093035;28;20740;-69
2023/02/24 04:17:57;;;;;;;43.93;24.97;;;12.00;99.90;;;;;;5090511;28;20463;-69
2023/02/24 04:20:29;;;;;;;43.50;25.23;;;12.00;99.90;;;;;;5091148;28;20464;-68
2023/02/24 04:23:12;;;;;;;50.87;26.97;;;12.10;99.90;;;;;;5087108;28;20941;-69
2023/02/24 04:25:42;;;;;;;48.20;25.30;;;12.00;99.90;;;;;;5095445;27;20844;-69
2023/02/24 04:28:08;;;;;;;47.23;24.77;;;12.00;99.90;;;;;;5093709;28;20456;-69
2023/02/24 04:30:39;;;;;;;47.47;25.30;;;11.90;99.90;;;;;;5095337;27;20858;-69
2023/02/24 04:33:05;;;;;;;51.70;26.37;;;12.00;99.90;;;;;;5096423;27;20466;-70
2023/02/24 04:35:31;;;;;;;44.70;24.17;;;11.90;99.90;;;;;;5091285;28;21112;-70
2023/02/24 04:37:57;;;;;;;45.63;23.60;;;12.00;99.90;;;;;;5094110;28;20466;-70
2023/02/24 04:40:23;;;;;;;47.20;25.97;;;12.00;99.90;;;;;;5097130;27;20823;-70
2023/02/24 04:42:51;;;;;;;50.03;24.77;;;12.00;99.90;;;;;;5092724;28;20185;-70
2023/02/24 04:45:18;;;;;;;48.00;24.10;;;12.00;99.90;;;;;;5092385;27;20438;-69
2023/02/24 04:47:45;;;;;;;47.50;23.60;;;12.10;99.90;;;;;;5090937;27;20455;-69
2023/02/24 04:50:21;;;;;;;47.40;25.50;;;12.00;99.90;;;;;;5089654;28;21595;-69
2023/02/24 04:52:48;;;;;;;41.37;23.27;;;12.00;99.90;;;;;;5094043;27;21220;-69
2023/02/24 04:55:16;;;;;;;50.20;24.90;;;12.00;99.90;;;;;;5094990;28;20451;-69
2023/02/24 04:57:44;;;;;;;47.17;23.07;;;12.00;99.90;;;;;;5091948;27;20463;-69
2023/02/24 05:00:21;;;;;;;44.00;24.23;;;12.00;99.90;;;;;;5094641;27;21151;-69
2023/02/24 05:02:48;;;;;;;49.60;23.10;;;12.00;99.90;;;;;;5093333;28;20504;-69
2023/02/24 05:05:24;;;;;;;46.20;23.90;;;12.00;99.90;;;;;;5089337;27;20475;-69
2023/02/24 05:07:53;;;;;;;46.83;22.50;;;12.00;99.90;;;;;;5089258;27;20446;-69
2023/02/24 05:10:21;;;;;;;43.27;24.10;;;12.00;99.90;;;;;;5090886;28;20454;-69
2023/02/24 05:12:46;;;;;;;46.00;22.70;;;12.00;99.90;;;;;;5091422;27;20439;-69
2023/02/24 05:15:12;;;;;;;47.47;25.27;;;12.00;99.90;;;;;;5090797;27;20469;-69
2023/02/24 05:17:39;;;;;;;42.63;23.20;;;12.00;99.90;;;;;;5091654;27;20202;-69
2023/02/24 05:22:50;;;;;;;41.03;21.03;;;12.00;99.90;;;;;;5091947;28;20449;-68
2023/02/24 05:25:17;;;;;;;43.67;21.10;;;12.00;99.90;;;;;;5090523;28;20435;-69
2023/02/24 05:27:43;;;;;;;41.90;21.77;;;12.00;99.90;;;;;;5094280;27;20205;-68
2023/02/24 05:30:10;;;;;;;47.10;21.90;;;12.00;99.90;;;;;;5089444;28;20979;-69
2023/02/24 05:32:36;;;;;;;43.07;23.53;;;11.90;99.90;;;;;;5090050;28;20185;-69
2023/02/24 05:35:02;;;;;;;40.03;20.80;;;12.00;99.90;;;;;;5073481;28;20860;-69
2023/02/24 05:37:28;;;;;;;42.00;22.97;;;12.00;99.90;;;;;;5090267;27;20568;-69
2023/02/24 05:39:59;;;;;;;44.47;20.60;;;12.00;99.90;;;;;;5091828;28;21019;-68
2023/02/24 05:42:26;;;;;;;41.20;20.33;;;12.00;99.90;;;;;;5092354;27;20185;-69
2023/02/24 05:44:52;;;;;;;41.50;21.73;;;11.90;99.90;;;;;;5087571;28;20563;-70
2023/02/24 05:47:18;;;;;;;43.30;21.93;;;11.90;99.90;;;;;;5089626;27;20537;-69
2023/02/24 05:49:46;;;;;;;39.83;21.10;;;11.90;99.90;;;;;;5089459;28;20459;-69
2023/02/24 05:52:13;;;;;;;46.47;22.17;;;11.90;99.90;;;;;;5090124;28;20443;-69
2023/02/24 05:54:43;;;;;;;39.60;20.60;;;11.90;99.90;;;;;;5088426;28;20972;-69
2023/02/24 05:57:26;;;;;;;44.50;21.67;;;11.90;99.90;;;;;;5096838;27;20463;-69
2023/02/24 05:59:54;;;;;;;36.70;18.63;;;11.90;99.90;;;;;;5089557;28;20895;-70
2023/02/24 06:02:25;;;;;;;42.43;21.70;;;11.90;99.90;;;;;;5092266;27;21043;-70
2023/02/24 06:04:55;;;;;;;43.43;22.67;;;11.90;99.90;;;;;;5089515;27;20440;-70
2023/02/24 06:07:26;;;;;;;39.10;20.97;;;11.90;99.90;;;;;;5088988;28;20463;-70
2023/02/24 06:09:55;;;;;;;38.73;19.37;;;11.90;99.90;;;;;;5071988;28;20449;-70
2023/02/24 06:12:26;;;;;;;40.70;20.97;;;11.90;99.90;;;;;;5090711;27;20451;-70
2023/02/24 06:14:52;;;;;;;40.10;22.40;;;11.90;99.90;;;;;;5092537;28;20439;-70
2023/02/24 06:17:19;;;;;;;40.60;21.60;;;11.90;99.90;;;;;;5090725;27;20489;-70
2023/02/24 06:19:48;;;;;;;40.30;21.03;;;11.80;99.90;;;;;;5093988;27;20209;-70
2023/02/24 06:22:15;;;;;;;41.70;20.93;;;11.90;99.90;;;;;;5094330;27;20536;-70
2023/02/24 06:24:43;;;;;;;39.73;20.13;;;11.80;99.90;;;;;;5089995;27;20439;-70
2023/02/24 06:27:16;;;;;;;40.63;20.87;;;11.90;99.90;;;;;;5092472;27;20846;-70
2023/02/24 06:29:42;;;;;;;38.30;19.70;;;11.90;99.90;;;;;;5093158;27;20445;-70
2023/02/24 06:32:08;;;;;;;45.20;20.67;;;11.80;99.90;;;;;;5089571;28;20440;-69
2023/02/24 06:34:35;;;;;;;38.70;19.70;;;11.80;99.90;;;;;;5087549;27;20452;-69
2023/02/24 06:37:02;;;;;;;38.67;20.87;;;11.90;99.90;;;;;;5085190;28;20463;-70
2023/02/24 06:39:29;;;;;;;42.23;21.17;;;11.90;99.90;;;;;;5090279;28;20471;-70
2023/02/24 06:41:56;;;;;;;41.43;21.43;;;11.90;99.90;;;;;;5090233;27;20432;-70
2023/02/24 06:44:23;;;;;;;40.07;20.77;;;11.90;99.90;;;;;;5087709;28;21217;-70
2023/02/24 06:46:49;;;;;;;47.07;21.80;;;11.90;99.90;;;;;;5089840;27;20516;-70
2023/02/24 06:49:14;;;;;;;42.03;20.10;;;11.90;99.90;;;;;;5088838;27;21165;-70
2023/02/24 06:51:42;;;;;;;44.97;21.17;;;11.90;99.90;;;;;;5089022;27;20181;-70
2023/02/24 06:54:08;;;;;;;40.30;19.90;;;11.90;99.90;;;;;;5088875;27;20192;-70
2023/02/24 06:56:37;;;;;;;36.40;19.67;;;11.90;99.90;;;;;;5085446;27;20979;-71
2023/02/24 06:59:05;;;;;;;42.13;21.43;;;11.90;99.90;;;;;;5088640;28;20457;-71
2023/02/24 07:01:33;;;;;;;42.30;19.43;;;11.90;99.90;;;;;;5090086;28;20617;-71
2023/02/24 07:04:16;;;;;;;38.70;20.43;;;11.90;99.90;;;;;;5087251;28;20525;-71
2023/02/24 07:06:49;;;;;;;44.17;21.37;;;11.90;99.90;;;;;;5090569;27;20486;-71
2023/02/24 07:09:17;;;;;;;39.47;19.40;;;11.90;99.90;;;;;;5090092;28;20442;-71
2023/02/24 07:11:54;;;;;;;39.17;19.70;;;12.00;99.90;;;;;;5090667;27;20447;-71
2023/02/24 07:14:22;;;;;;;36.80;19.27;;;12.00;99.90;;;;;;5089253;27;20446;-70
2023/02/24 07:16:52;;;;;;;37.87;20.60;;;11.90;99.90;;;;;;5087265;28;20451;-70
2023/02/24 07:19:20;;;;;;;40.10;21.33;;;12.00;99.90;;;;;;5094728;27;20470;-70
2023/02/24 07:21:48;;;;;;;34.93;18.57;;;12.00;99.90;;;;;;5090964;28;20471;-70
2023/02/24 07:24:23;;;;;;;35.53;20.33;;;12.00;99.90;;;;;;5093834;27;20443;-69
2023/02/24 07:26:55;;;;;;;36.93;18.00;;;12.00;99.90;;;;;;5092243;28;21374;-69
2023/02/24 07:29:22;;;;;;;41.03;19.30;;;12.00;99.90;;;;;;5088718;28;20844;-69
2023/02/24 07:31:47;;;;;;;37.23;18.90;;;12.00;99.90;;;;;;5089739;28;20840;-69
2023/02/24 07:34:13;;;;;;;38.50;19.70;;;11.90;99.90;;;;;;5087897;28;20524;-69
2023/02/24 07:36:47;;;;;;;41.13;20.73;;;11.90;99.90;;;;;;5072143;28;20297;-69
2023/02/24 07:39:15;;;;;;;38.53;20.40;;;11.90;99.90;;;;;;5093344;28;20907;-69
2023/02/24 07:41:45;;;;;;;46.03;21.17;;;11.90;99.90;;;;;;5090470;28;20440;-69
2023/02/24 07:44:12;;;;;;;39.83;21.10;;;12.00;99.90;;;;;;5090640;28;20439;-69
2023/02/24 07:46:38;;;;;;;37.80;19.33;;;12.00;99.90;;;;;;5090153;28;20554;-70
2023/02/24 07:49:08;;;;;;;37.90;20.57;;;12.00;99.90;;;;;;5090257;28;20432;-70
2023/02/24 07:51:34;;;;;;;32.10;15.27;;;12.00;99.90;;;;;;5074100;28;20436;-70
2023/02/24 07:54:02;;;;;;;34.20;18.17;;;12.00;99.90;;;;;;5090335;28;20442;-69
2023/02/24 07:56:29;;;;;;;31.10;16.47;;;12.10;99.90;;;;;;5092885;28;20455;-69
2023/02/24 07:59:06;;;;;;;40.93;19.43;;;12.10;99.90;;;;;;5077466;28;20465;-69
2023/02/24 08:01:40;;;;;;;35.10;18.60;;;12.10;99.90;;;;;;5098082;27;20445;-69
2023/02/24 08:04:11;;;;;;;36.90;18.93;;;12.10;99.90;;;;;;5097086;27;20440;-69
2023/02/24 08:06:42;;;;;;;43.30;20.00;;;12.10;99.90;;;;;;5090122;27;20459;-69
2023/02/24 08:09:16;;;;;;;40.90;20.30;;;12.10;99.90;;;;;;5093192;28;20440;-70
2023/02/24 08:11:49;;;;;;;42.57;21.03;;;12.10;99.90;;;;;;5094172;27;20451;-70
2023/02/24 08:14:15;;;;;;;46.87;22.87;;;12.10;99.90;;;;;;5092458;27;20435;-69
2023/02/24 08:16:46;;;;;;;44.17;22.50;;;12.10;99.90;;;;;;5097027;27;20459;-70
2023/02/24 08:19:19;;;;;;;46.27;23.53;;;12.10;99.90;;;;;;5094049;27;20895;-69
2023/02/24 08:21:49;;;;;;;47.50;22.40;;;12.10;99.90;;;;;;5080451;28;21125;-69
2023/02/24 08:24:18;;;;;;;42.77;21.40;;;12.10;99.90;;;;;;5096230;27;20428;-69
2023/02/24 08:26:52;;;;;;;42.23;20.60;;;12.00;99.90;;;;;;5095463;27;20500;-70
2023/02/24 08:29:19;;;;;;;42.67;22.80;;;12.00;99.90;;;;;;5088727;28;20538;-70
2023/02/24 08:31:45;;;;;;;48.13;23.03;;;11.90;99.90;;;;;;5093702;27;20485;-69
2023/02/24 08:34:14;;;;;;;46.93;21.93;;;11.90;99.90;;;;;;5096536;28;20475;-69
2023/02/24 08:36:46;;;;;;;37.73;18.50;;;11.90;99.90;;;;;;5090388;28;20451;-69
2023/02/24 08:39:13;;;;;;;38.90;19.20;;;11.90;99.90;;;;;;5096524;27;20546;-69
2023/02/24 08:41:49;;;;;;;44.17;21.03;;;11.90;99.90;;;;;;5075432;28;21011;-70
2023/02/24 08:44:19;;;;;;;39.30;18.97;;;11.90;99.90;;;;;;5096303;27;20518;-70
2023/02/24 08:46:48;;;;;;;38.40;19.33;;;11.90;99.90;;;;;;5093836;27;20808;-70
2023/02/24 08:49:15;;;;;;;39.10;19.90;;;11.90;99.90;;;;;;5092956;27;20441;-69
2023/02/24 08:51:44;;;;;;;41.47;22.43;;;11.90;99.90;;;;;;5091478;27;20428;-69
2023/02/24 08:54:16;;;;;;;39.60;20.70;;;11.90;99.90;;;;;;5090537;28;20492;-69
2023/02/24 08:56:54;;;;;;;37.73;20.33;;;11.90;99.90;;;;;;5090633;27;20466;-69
2023/02/24 08:59:36;;;;;;;34.57;17.10;;;12.00;99.90;;;;;;5091723;28;20531;-69
2023/02/24 09:02:17;;;;;;;32.77;17.17;;;12.00;99.90;;;;;;5094975;27;20435;-69
2023/02/24 09:04:52;;;;;;;31.87;16.83;;;12.10;99.90;;;;;;5093997;27;20941;-69
2023/02/24 09:07:22;;;;;;;37.60;17.00;;;12.10;99.90;;;;;;5077536;28;20821;-71
2023/02/24 09:09:48;;;;;;;30.83;15.53;;;12.10;99.90;;;;;;5091997;28;20473;-69
2023/02/24 09:12:23;;;;;;;23.00;13.73;;;12.10;99.90;;;;;;5093255;28;20432;-68
2023/02/24 09:14:54;;;;;;;23.83;14.20;;;12.20;99.90;;;;;;5088120;28;20439;-67
2023/02/24 09:17:27;;;;;;;22.77;12.87;;;12.20;99.90;;;;;;5090307;27;20451;-69
2023/02/24 09:25:22;;;;;;;26.30;15.50;;;12.20;99.90;;;;;;5093776;28;20443;-69
2023/02/24 09:27:51;;;;;;;25.13;14.10;;;12.20;99.90;;;;;;5098567;27;20442;-69
2023/02/24 09:30:37;;;;;;;22.80;13.97;;;12.20;99.90;;;;;;5090395;28;20562;-70
2023/02/24 09:33:17;;;;;;;27.20;14.87;;;12.20;99.90;;;;;;5091439;27;20443;-70
2023/02/24 09:35:45;;;;;;;30.03;16.80;;;12.20;99.90;;;;;;5073227;27;20446;-70
2023/02/24 09:38:15;;;;;;;27.70;16.87;;;12.30;99.90;;;;;;5090494;27;20538;-71
2023/02/24 09:40:49;;;;;;;26.97;16.00;;;12.30;99.90;;;;;;5090496;28;20490;-70
2023/02/24 09:43:26;;;;;;;30.03;16.90;;;12.30;99.90;;;;;;5093893;27;20431;-71
2023/02/24 09:45:57;;;;;;;29.33;16.50;;;12.20;99.90;;;;;;5088865;27;20431;-72
2023/02/24 09:48:42;;;;;;;31.07;16.17;;;12.20;99.90;;;;;;5094516;28;20446;-72
2023/02/24 09:51:20;;;;;;;43.07;18.00;;;12.20;99.90;;;;;;5077680;27;20553;-71
2023/02/24 09:53:53;;;;;;;32.50;16.03;;;12.20;99.90;;;;;;5093517;27;20435;-72
2023/02/24 09:56:41;;;;;;;31.30;16.63;;;12.30;99.90;;;;;;5093893;27;20443;-70
2023/02/24 09:59:33;;;;;;;29.60;17.17;;;12.30;99.90;;;;;;5088006;27;21162;-71
2023/02/24 10:02:27;;;;;;;34.10;17.47;;;12.20;99.90;;;;;;5087805;28;20431;-70
2023/02/24 10:05:21;;;;;;;37.93;18.73;;;12.20;99.90;;;;;;5087608;28;20443;-70
2023/02/24 10:07:51;;;;;;;31.97;17.03;;;12.20;99.90;;;;;;5089522;28;20558;-72
2023/02/24 10:10:26;;;;;;;35.80;19.97;;;12.20;99.90;;;;;;5090502;28;20468;-71
2023/02/24 10:12:59;;;;;;;45.13;20.00;;;12.10;99.90;;;;;;5090714;28;20932;-71
2023/02/24 10:15:43;;;;;;;36.50;19.77;;;12.00;99.90;;;;;;5092212;27;20442;-71
2023/02/24 10:18:29;;;;;;;42.33;18.50;;;12.10;99.90;;;;;;5089058;28;20646;-70
2023/02/24 10:21:29;;;;;;;32.50;17.57;;;12.10;99.90;;;;;;5086005;27;20554;-70
2023/02/24 10:24:28;;;;;;;39.47;18.70;;;12.10;99.90;;;;;;5092330;27;21905;-70
2023/02/24 10:27:04;;;;;;;29.27;15.70;;;12.10;99.90;;;;;;5088197;27;20512;-68
2023/02/24 10:29:54;;;;;;;32.47;18.57;;;12.10;99.90;;;;;;5090725;27;20524;-68
2023/02/24 10:32:30;;;;;;;36.57;19.10;;;11.90;99.90;;;;;;5090031;28;20855;-69
2023/02/24 10:34:56;;;;;;;33.47;18.47;;;12.00;99.90;;;;;;5090059;27;20423;-69
2023/02/24 10:37:26;;;;;;;30.83;17.87;;;12.10;99.90;;;;;;5089764;28;20456;-67
2023/02/24 10:39:56;;;;;;;33.43;18.77;;;12.10;99.90;;;;;;5088630;28;20499;-70
2023/02/24 10:42:30;;;;;;;35.30;19.70;;;12.10;99.90;;;;;;5092035;28;20544;-68
2023/02/24 10:45:16;;;;;;;33.63;17.53;;;12.20;99.90;;;;;;5090232;28;20439;-70
2023/02/24 10:47:55;;;;;;;34.10;17.10;;;12.30;99.90;;;;;;5087897;28;20463;-69
2023/02/24 10:50:27;;;;;;;34.80;17.50;;;12.30;99.90;;;;;;5087617;28;20435;-70
2023/02/24 10:58:27;;;;;;;39.73;22.00;;;12.10;99.90;;;;;;5095613;27;20944;-70
2023/02/24 11:01:19;;;;;;;43.43;20.33;;;12.10;99.90;;;;;;5086477;28;20475;-69
2023/02/24 11:04:00;;;;;;;36.50;19.63;;;12.10;99.90;;;;;;5087855;27;20830;-70
2023/02/24 11:09:18;;;;;;;40.13;20.50;;;12.40;99.90;;;;;;5088766;28;20507;-69
2023/02/24 11:17:25;;;;;;;43.40;22.23;;;12.10;99.90;;;;;;5093783;28;21039;-69
2023/02/24 11:20:09;;;;;;;44.20;21.40;;;12.20;99.90;;;;;;5091959;28;20833;-70
2023/02/24 11:22:44;;;;;;;47.90;22.47;;;12.30;99.90;;;;;;5092243;28;20954;-69
2023/02/24 11:25:22;;;;;;;41.40;21.13;;;12.40;99.90;;;;;;5094776;27;20426;-70
2023/02/24 11:27:48;;;;;;;38.90;21.70;;;12.50;99.90;;;;;;5070034;28;20460;-70
2023/02/24 11:30:19;;;;;;;39.00;21.20;;;12.60;99.90;;;;;;5091644;28;20943;-70
2023/02/24 11:33:00;;;;;;;39.77;21.57;;;12.50;99.90;;;;;;5091820;28;20444;-72
2023/02/24 11:35:29;;;;;;;43.40;23.23;;;12.60;99.90;;;;;;5089312;28;20477;-71
2023/02/24 11:38:26;;;;;;;41.73;22.40;;;12.60;99.90;;;;;;5096437;27;20435;-73
2023/02/24 11:41:02;;;;;;;45.10;24.83;;;12.60;99.90;;;;;;5085596;28;20470;-73
2023/02/24 11:43:30;;;;;;;42.50;23.23;;;12.50;99.90;;;;;;5091521;28;20428;-73
2023/02/24 11:46:16;;;;;;;49.70;21.87;;;12.50;99.90;;;;;;5085897;28;20429;-69
2023/02/24 11:48:51;;;;;;;44.93;22.57;;;12.60;99.90;;;;;;5088595;28;20435;-70
2023/02/24 11:51:27;;;;;;;43.40;22.77;;;12.50;99.90;;;;;;5085465;28;20438;-73
2023/02/24 11:53:57;;;;;;;48.77;21.27;;;12.50;99.90;;;;;;5083131;28;20445;-70
2023/02/24 11:56:31;;;;;;;39.37;21.17;;;12.60;99.90;;;;;;5091288;28;20454;-67
2023/02/24 11:59:00;;;;;;;46.23;22.67;;;12.70;99.90;;;;;;5083956;28;20458;-68
2023/02/24 12:01:42;;;;;;;36.97;21.20;;;12.70;99.90;;;;;;5077440;28;20943;-67
2023/02/24 12:04:22;;;;;;;42.80;23.03;;;12.60;99.90;;;;;;5090193;28;20466;-68
2023/02/24 12:07:22;;;;;;;40.10;20.13;;;12.80;99.90;;;;;;5092840;28;20649;-67
2023/02/24 12:09:58;;;;;;;39.13;20.53;;;13.00;99.90;;;;;;5088307;28;21020;-68
2023/02/24 12:12:42;;;;;;;37.10;20.50;;;12.90;99.90;;;;;;5095836;28;20476;-68
2023/02/24 12:15:25;;;;;;;42.67;22.50;;;12.80;99.90;;;;;;5092381;28;20424;-69
2023/02/24 12:18:12;;;;;;;41.47;22.60;;;12.80;99.90;;;;;;5088644;28;20460;-69
2023/02/24 12:20:59;;;;;;;41.67;21.90;;;12.70;99.90;;;;;;5088944;28;20464;-69
2023/02/24 12:23:36;;;;;;;35.30;20.27;;;12.50;99.90;;;;;;5091446;28;20424;-69
2023/02/24 12:26:15;;;;;;;39.10;20.10;;;12.60;99.90;;;;;;5091564;28;20439;-69
2023/02/24 12:29:14;;;;;;;39.43;21.70;;;12.70;99.90;;;;;;5075435;28;20442;-69
2023/02/24 12:31:56;;;;;;;34.33;21.50;;;12.60;99.90;;;;;;5092548;28;20435;-68
2023/02/24 12:34:45;;;;;;;39.93;22.00;;;12.60;99.90;;;;;;5081858;28;20481;-68
2023/02/24 12:37:23;;;;;;;34.80;19.60;;;12.60;99.90;;;;;;5085420;28;20447;-68
2023/02/24 12:40:03;;;;;;;38.70;21.73;;;12.40;99.90;;;;;;5083670;28;20536;-68
2023/02/24 12:43:05;;;;;;;38.23;19.07;;;12.40;99.90;;;;;;5091252;28;20489;-69
2023/02/24 12:45:42;;;;;;;37.33;20.53;;;12.50;99.90;;;;;;5094543;28;20511;-69
2023/02/24 12:48:39;;;;;;;42.27;23.53;;;12.60;99.90;;;;;;5069584;28;20469;-69
2023/02/24 12:51:13;;;;;;;39.23;20.03;;;12.50;99.90;;;;;;5090761;27;20411;-69
2023/02/24 12:54:03;;;;;;;41.07;22.10;;;12.50;99.90;;;;;;5094781;27;20501;-68
2023/02/24 12:56:45;;;;;;;48.70;23.43;;;12.40;99.90;;;;;;5096895;27;20495;-70
2023/02/24 12:59:16;;;;;;;44.03;22.30;;;12.30;99.90;;;;;;5074822;28;20699;-69
2023/02/24 13:02:13;;;;;;;39.77;22.50;;;12.40;99.90;;;;;;5077083;28;20444;-68
2023/02/24 13:05:14;;;;;;;43.43;22.27;;;12.40;99.90;;;;;;5092841;27;20497;-68
2023/02/24 13:08:06;;;;;;;41.17;22.80;;;12.40;99.90;;;;;;5092269;28;20553;-68
2023/02/24 13:10:36;;;;;;;43.53;22.80;;;12.50;99.90;;;;;;5093182;27;20475;-69
2023/02/24 13:13:17;;;;;;;41.33;21.40;;;12.40;99.90;;;;;;5090871;28;20461;-69
2023/02/24 13:15:54;;;;;;;39.33;22.27;;;12.50;99.90;;;;;;5087584;27;20435;-69
2023/02/24 13:18:24;;;;;;;44.93;23.97;;;12.40;99.90;;;;;;5087433;27;20505;-68
2023/02/24 13:21:21;;;;;;;38.87;22.20;;;12.30;99.90;;;;;;5088495;28;20601;-69
2023/02/24 13:24:19;;;;;;;39.20;23.13;;;12.30;99.90;;;;;;5097393;27;20467;-70
2023/02/24 13:26:44;;;;;;;43.90;22.03;;;12.40;99.90;;;;;;5092413;27;20941;-71